sensor_id;sensor_type;location;lat;lon;timestamp;temperature;humidity
12948;DHT22;6539;49.476;8.484;2023-05-10T00:00:30;16.30;99.90
12948;DHT22;6539;49.476;8.484;2023-05-10T00:02:56;16.30;99.90
12948;DHT22;6539;49.476;8.484;2023-05-10T00:05:22;16.20;99.90
12948;DHT22;6539;49.476;8.484;2023-05-10T00:07:48;16.50;99.90
12948;DHT22;6539;49.476;8.484;2023-05-10T00:10:14;16.30;99.90
12948;DHT22;6539;49.476;8.484;2023-05-10T00:12:40;16.30;99.90
12948;DHT22;6539;49.476;8.484;2023-05-10T00:15:08;16.40;99.90
12948;DHT22;6539;49.476;8.484;2023-05-10T00:17:34;16.50;99.90
12948;DHT22;6539;49.476;8.484;2023-05-10T00:20:00;16.30;99.90
12948;DHT22;6539;49.476;8.484;2023-05-10T00:22:26;16.30;99.90
12948;DHT22;6539;49.476;8.484;2023-05-10T00:24:52;16.20;99.90
12948;DHT22;6539;49.476;8.484;2023-05-10T00:27:17;16.30;99.90
12948;DHT22;6539;49.476;8.484;2023-05-10T00:29:43;16.00;99.90
12948;DHT22;6539;49.476;8.484;2023-05-10T00:32:11;16.20;99.90
12948;DHT22;6539;49.476;8.484;2023-05-10T00:34:39;16.20;99.90
12948;DHT22;6539;49.476;8.484;2023-05-10T00:37:07;16.20;99.90
12948;DHT22;6539;49.476;8.484;2023-05-10T00:39:35;16.20;99.90
12948;DHT22;6539;49.476;8.484;2023-05-10T00:42:04;16.30;99.90
12948;DHT22;6539;49.476;8.484;2023-05-10T00:44:29;16.20;99.90
12948;DHT22;6539;49.476;8.484;2023-05-10T00:46:57;16.00;99.90
12948;DHT22;6539;49.476;8.484;2023-05-10T00:49:24;16.20;99.90
12948;DHT22;6539;49.476;8.484;2023-05-10T00:51:50;16.10;99.90
12948;DHT22;6539;49.476;8.484;2023-05-10T00:54:18;16.10;99.90
12948;DHT22;6539;49.476;8.484;2023-05-10T00:56:44;16.10;99.90
12948;DHT22;6539;49.476;8.484;2023-05-10T00:59:17;16.40;99.90
12948;DHT22;6539;49.476;8.484;2023-05-10T01:01:46;16.10;99.90
12948;DHT22;6539;49.476;8.484;2023-05-10T01:04:15;16.00;99.90
12948;DHT22;6539;49.476;8.484;2023-05-10T01:06:41;16.00;99.90
12948;DHT22;6539;49.476;8.484;2023-05-10T01:12:51;16.00;99.90
12948;DHT22;6539;49.476;8.484;2023-05-10T01:15:17;16.10;99.90
12948;DHT22;6539;49.476;8.484;2023-05-10T01:17:50;15.90;99.90
12948;DHT22;6539;49.476;8.484;2023-05-10T01:20:17;15.90;99.90
12948;DHT22;6539;49.476;8.484;2023-05-10T01:23:05;15.90;99.90
12948;DHT22;6539;49.476;8.484;2023-05-10T01:25:57;15.90;99.90
12948;DHT22;6539;49.476;8.484;2023-05-10T01:29:27;15.90;99.90
12948;DHT22;6539;49.476;8.484;2023-05-10T01:34:59;15.80;99.90
12948;DHT22;6539;49.476;8.484;2023-05-10T01:37:45;15.80;99.90
12948;DHT22;6539;49.476;8.484;2023-05-10T01:40:40;15.80;99.90
12948;DHT22;6539;49.476;8.484;2023-05-10T01:43:21;15.90;99.90
12948;DHT22;6539;49.476;8.484;2023-05-10T01:46:10;16.00;99.90
12948;DHT22;6539;49.476;8.484;2023-05-10T01:48:48;16.00;99.90
12948;DHT22;6539;49.476;8.484;2023-05-10T01:51:23;15.90;99.90
12948;DHT22;6539;49.476;8.484;2023-05-10T01:53:53;15.80;99.90
12948;DHT22;6539;49.476;8.484;2023-05-10T01:56:29;15.80;99.90
12948;DHT22;6539;49.476;8.484;2023-05-10T01:59:00;15.80;99.90
12948;DHT22;6539;49.476;8.484;2023-05-10T02:01:30;15.80;99.90
12948;DHT22;6539;49.476;8.484;2023-05-10T02:06:30;15.90;99.90
12948;DHT22;6539;49.476;8.484;2023-05-10T02:08:58;15.90;99.90
12948;DHT22;6539;49.476;8.484;2023-05-10T02:11:27;16.00;99.90
12948;DHT22;6539;49.476;8.484;2023-05-10T02:13:55;16.00;99.90
12948;DHT22;6539;49.476;8.484;2023-05-10T02:16:24;16.00;99.90
12948;DHT22;6539;49.476;8.484;2023-05-10T02:18:57;16.00;99.90
12948;DHT22;6539;49.476;8.484;2023-05-10T02:21:31;15.90;99.90
12948;DHT22;6539;49.476;8.484;2023-05-10T02:23:59;16.20;99.90
12948;DHT22;6539;49.476;8.484;2023-05-10T02:26:29;16.10;99.90
12948;DHT22;6539;49.476;8.484;2023-05-10T02:29:01;16.00;99.90
12948;DHT22;6539;49.476;8.484;2023-05-10T02:31:32;15.90;99.90
12948;DHT22;6539;49.476;8.484;2023-05-10T02:34:00;15.80;99.90
12948;DHT22;6539;49.476;8.484;2023-05-10T02:36:29;15.70;99.90
12948;DHT22;6539;49.476;8.484;2023-05-10T02:39:00;15.60;99.90
12948;DHT22;6539;49.476;8.484;2023-05-10T02:41:28;15.70;99.90
12948;DHT22;6539;49.476;8.484;2023-05-10T02:43:57;15.60;99.90
12948;DHT22;6539;49.476;8.484;2023-05-10T02:46:28;15.60;99.90
12948;DHT22;6539;49.476;8.484;2023-05-10T02:48:57;15.60;99.90
12948;DHT22;6539;49.476;8.484;2023-05-10T02:51:25;15.60;99.90
12948;DHT22;6539;49.476;8.484;2023-05-10T02:53:57;15.60;99.90
12948;DHT22;6539;49.476;8.484;2023-05-10T02:56:34;15.50;99.90
12948;DHT22;6539;49.476;8.484;2023-05-10T02:59:01;15.50;99.90
12948;DHT22;6539;49.476;8.484;2023-05-10T03:01:27;15.50;99.90
12948;DHT22;6539;49.476;8.484;2023-05-10T03:03:57;15.40;99.90
12948;DHT22;6539;49.476;8.484;2023-05-10T03:06:25;15.40;99.90
12948;DHT22;6539;49.476;8.484;2023-05-10T03:08:53;15.40;99.90
12948;DHT22;6539;49.476;8.484;2023-05-10T03:17:23;15.40;99.90
12948;DHT22;6539;49.476;8.484;2023-05-10T03:20:25;15.30;99.90
12948;DHT22;6539;49.476;8.484;2023-05-10T03:23:26;15.30;99.90
12948;DHT22;6539;49.476;8.484;2023-05-10T03:26:02;15.20;99.90
12948;DHT22;6539;49.476;8.484;2023-05-10T03:28:31;15.60;99.90
12948;DHT22;6539;49.476;8.484;2023-05-10T03:31:02;15.70;99.90
12948;DHT22;6539;49.476;8.484;2023-05-10T03:33:30;15.70;99.90
12948;DHT22;6539;49.476;8.484;2023-05-10T03:35:57;16.00;99.90
12948;DHT22;6539;49.476;8.484;2023-05-10T03:38:23;15.70;99.90
12948;DHT22;6539;49.476;8.484;2023-05-10T03:40:51;15.60;99.90
12948;DHT22;6539;49.476;8.484;2023-05-10T03:43:16;15.60;99.90
12948;DHT22;6539;49.476;8.484;2023-05-10T03:45:42;15.50;99.90
12948;DHT22;6539;49.476;8.484;2023-05-10T03:48:10;15.50;99.90
12948;DHT22;6539;49.476;8.484;2023-05-10T03:50:41;15.60;99.90
12948;DHT22;6539;49.476;8.484;2023-05-10T03:53:08;15.60;99.90
12948;DHT22;6539;49.476;8.484;2023-05-10T03:55:36;15.60;99.90
12948;DHT22;6539;49.476;8.484;2023-05-10T03:58:02;15.60;99.90
12948;DHT22;6539;49.476;8.484;2023-05-10T04:00:27;15.60;99.90
12948;DHT22;6539;49.476;8.484;2023-05-10T04:02:53;15.60;99.90
12948;DHT22;6539;49.476;8.484;2023-05-10T04:05:24;15.50;99.90
12948;DHT22;6539;49.476;8.484;2023-05-10T04:07:52;15.40;99.90
12948;DHT22;6539;49.476;8.484;2023-05-10T04:10:18;15.30;99.90
12948;DHT22;6539;49.476;8.484;2023-05-10T04:12:44;15.30;99.90
12948;DHT22;6539;49.476;8.484;2023-05-10T04:15:12;15.20;99.90
12948;DHT22;6539;49.476;8.484;2023-05-10T04:17:37;15.30;99.90
12948;DHT22;6539;49.476;8.484;2023-05-10T04:20:04;15.50;99.90
12948;DHT22;6539;49.476;8.484;2023-05-10T04:22:31;15.40;99.90
12948;DHT22;6539;49.476;8.484;2023-05-10T04:24:59;15.30;99.90
12948;DHT22;6539;49.476;8.484;2023-05-10T04:27:30;15.20;99.90
12948;DHT22;6539;49.476;8.484;2023-05-10T04:29:58;15.30;99.90
12948;DHT22;6539;49.476;8.484;2023-05-10T04:32:27;15.20;99.90
12948;DHT22;6539;49.476;8.484;2023-05-10T04:34:53;15.00;99.90
12948;DHT22;6539;49.476;8.484;2023-05-10T04:37:21;15.10;99.90
12948;DHT22;6539;49.476;8.484;2023-05-10T04:39:48;15.20;99.90
12948;DHT22;6539;49.476;8.484;2023-05-10T04:42:18;15.10;99.90
12948;DHT22;6539;49.476;8.484;2023-05-10T04:44:44;15.20;99.90
12948;DHT22;6539;49.476;8.484;2023-05-10T04:47:09;15.20;99.90
12948;DHT22;6539;49.476;8.484;2023-05-10T04:49:43;15.20;99.90
12948;DHT22;6539;49.476;8.484;2023-05-10T04:52:11;15.20;99.90
12948;DHT22;6539;49.476;8.484;2023-05-10T04:54:39;15.10;99.90
12948;DHT22;6539;49.476;8.484;2023-05-10T04:57:05;15.20;99.90
12948;DHT22;6539;49.476;8.484;2023-05-10T04:59:30;15.40;99.90
12948;DHT22;6539;49.476;8.484;2023-05-10T05:01:56;15.00;99.90
12948;DHT22;6539;49.476;8.484;2023-05-10T05:04:26;15.10;99.90
12948;DHT22;6539;49.476;8.484;2023-05-10T05:06:52;15.00;99.90
12948;DHT22;6539;49.476;8.484;2023-05-10T05:09:18;15.10;99.90
12948;DHT22;6539;49.476;8.484;2023-05-10T05:11:44;15.10;99.90
12948;DHT22;6539;49.476;8.484;2023-05-10T05:14:09;15.10;99.90
12948;DHT22;6539;49.476;8.484;2023-05-10T05:16:35;15.10;99.90
12948;DHT22;6539;49.476;8.484;2023-05-10T05:19:03;15.10;99.90
12948;DHT22;6539;49.476;8.484;2023-05-10T05:21:29;15.10;99.90
12948;DHT22;6539;49.476;8.484;2023-05-10T05:23:54;15.10;99.90
12948;DHT22;6539;49.476;8.484;2023-05-10T05:26:20;15.00;99.90
12948;DHT22;6539;49.476;8.484;2023-05-10T05:28:48;15.20;99.90
12948;DHT22;6539;49.476;8.484;2023-05-10T05:31:20;15.30;99.90
12948;DHT22;6539;49.476;8.484;2023-05-10T05:33:50;15.30;99.90
12948;DHT22;6539;49.476;8.484;2023-05-10T05:36:18;15.40;99.90
12948;DHT22;6539;49.476;8.484;2023-05-10T05:38:46;15.40;99.90
12948;DHT22;6539;49.476;8.484;2023-05-10T05:41:13;15.40;99.90
12948;DHT22;6539;49.476;8.484;2023-05-10T05:43:38;15.30;99.90
12948;DHT22;6539;49.476;8.484;2023-05-10T05:46:04;15.40;99.90
12948;DHT22;6539;49.476;8.484;2023-05-10T05:48:31;15.30;99.90
12948;DHT22;6539;49.476;8.484;2023-05-10T05:50:57;15.50;99.90
12948;DHT22;6539;49.476;8.484;2023-05-10T05:53:25;15.40;99.90
12948;DHT22;6539;49.476;8.484;2023-05-10T05:55:56;15.40;99.90
12948;DHT22;6539;49.476;8.484;2023-05-10T05:58:26;15.40;99.90
12948;DHT22;6539;49.476;8.484;2023-05-10T06:00:52;15.40;99.90
12948;DHT22;6539;49.476;8.484;2023-05-10T06:03:22;15.40;99.90
12948;DHT22;6539;49.476;8.484;2023-05-10T06:05:48;14.90;99.90
12948;DHT22;6539;49.476;8.484;2023-05-10T06:08:19;15.50;99.90
12948;DHT22;6539;49.476;8.484;2023-05-10T06:10:45;15.50;99.90
12948;DHT22;6539;49.476;8.484;2023-05-10T06:13:12;15.50;99.90
12948;DHT22;6539;49.476;8.484;2023-05-10T06:15:38;15.50;99.90
12948;DHT22;6539;49.476;8.484;2023-05-10T06:18:04;15.60;99.90
12948;DHT22;6539;49.476;8.484;2023-05-10T06:20:29;15.50;99.90
12948;DHT22;6539;49.476;8.484;2023-05-10T06:22:57;15.50;99.90
12948;DHT22;6539;49.476;8.484;2023-05-10T06:25:23;15.60;99.90
12948;DHT22;6539;49.476;8.484;2023-05-10T06:27:49;15.60;99.90
12948;DHT22;6539;49.476;8.484;2023-05-10T06:30:17;15.70;99.90
12948;DHT22;6539;49.476;8.484;2023-05-10T06:32:45;15.70;99.90
12948;DHT22;6539;49.476;8.484;2023-05-10T06:35:13;15.80;99.90
12948;DHT22;6539;49.476;8.484;2023-05-10T06:37:41;15.80;99.90
12948;DHT22;6539;49.476;8.484;2023-05-10T06:40:07;15.80;99.90
12948;DHT22;6539;49.476;8.484;2023-05-10T06:42:34;15.80;99.90
12948;DHT22;6539;49.476;8.484;2023-05-10T06:45:00;15.80;99.90
12948;DHT22;6539;49.476;8.484;2023-05-10T06:47:28;15.80;99.90
12948;DHT22;6539;49.476;8.484;2023-05-10T06:49:53;15.90;99.90
12948;DHT22;6539;49.476;8.484;2023-05-10T06:52:20;15.90;99.90
12948;DHT22;6539;49.476;8.484;2023-05-10T06:54:48;15.90;99.90
12948;DHT22;6539;49.476;8.484;2023-05-10T06:57:13;15.90;99.90
12948;DHT22;6539;49.476;8.484;2023-05-10T06:59:41;15.90;99.90
12948;DHT22;6539;49.476;8.484;2023-05-10T07:02:11;15.90;99.90
12948;DHT22;6539;49.476;8.484;2023-05-10T07:04:36;16.10;99.90
12948;DHT22;6539;49.476;8.484;2023-05-10T07:07:02;15.90;99.90
12948;DHT22;6539;49.476;8.484;2023-05-10T07:09:30;16.00;99.90
12948;DHT22;6539;49.476;8.484;2023-05-10T07:11:56;16.10;99.90
12948;DHT22;6539;49.476;8.484;2023-05-10T07:14:25;16.10;99.90
12948;DHT22;6539;49.476;8.484;2023-05-10T07:16:53;16.10;99.90
12948;DHT22;6539;49.476;8.484;2023-05-10T07:19:19;16.10;99.90
12948;DHT22;6539;49.476;8.484;2023-05-10T07:21:47;16.20;99.90
12948;DHT22;6539;49.476;8.484;2023-05-10T07:24:15;16.30;99.90
12948;DHT22;6539;49.476;8.484;2023-05-10T07:26:43;16.40;99.90
12948;DHT22;6539;49.476;8.484;2023-05-10T07:29:11;16.40;99.90
12948;DHT22;6539;49.476;8.484;2023-05-10T07:31:37;16.50;99.90
12948;DHT22;6539;49.476;8.484;2023-05-10T07:34:03;16.70;99.90
12948;DHT22;6539;49.476;8.484;2023-05-10T07:36:33;16.80;99.90
12948;DHT22;6539;49.476;8.484;2023-05-10T07:38:59;16.90;99.90
12948;DHT22;6539;49.476;8.484;2023-05-10T07:41:25;17.10;99.90
12948;DHT22;6539;49.476;8.484;2023-05-10T07:43:53;16.80;99.90
12948;DHT22;6539;49.476;8.484;2023-05-10T07:46:19;16.90;99.90
12948;DHT22;6539;49.476;8.484;2023-05-10T07:48:45;17.00;99.90
12948;DHT22;6539;49.476;8.484;2023-05-10T07:51:14;17.10;99.90
12948;DHT22;6539;49.476;8.484;2023-05-10T07:53:44;17.30;99.90
12948;DHT22;6539;49.476;8.484;2023-05-10T07:58:53;17.60;99.90
12948;DHT22;6539;49.476;8.484;2023-05-10T08:01:22;17.60;99.90
12948;DHT22;6539;49.476;8.484;2023-05-10T08:03:48;17.50;99.90
12948;DHT22;6539;49.476;8.484;2023-05-10T08:06:19;17.50;99.90
12948;DHT22;6539;49.476;8.484;2023-05-10T08:08:47;17.30;99.90
12948;DHT22;6539;49.476;8.484;2023-05-10T08:11:22;17.40;99.90
12948;DHT22;6539;49.476;8.484;2023-05-10T08:13:49;17.20;99.90
12948;DHT22;6539;49.476;8.484;2023-05-10T08:16:16;17.20;99.90
12948;DHT22;6539;49.476;8.484;2023-05-10T08:18:43;17.30;99.90
12948;DHT22;6539;49.476;8.484;2023-05-10T08:21:10;17.20;99.90
12948;DHT22;6539;49.476;8.484;2023-05-10T08:23:39;17.10;99.90
12948;DHT22;6539;49.476;8.484;2023-05-10T08:26:11;17.10;99.90
12948;DHT22;6539;49.476;8.484;2023-05-10T08:28:39;17.20;99.90
12948;DHT22;6539;49.476;8.484;2023-05-10T08:31:07;17.30;99.90
12948;DHT22;6539;49.476;8.484;2023-05-10T08:33:33;17.30;99.90
12948;DHT22;6539;49.476;8.484;2023-05-10T08:36:01;17.70;99.90
12948;DHT22;6539;49.476;8.484;2023-05-10T08:38:26;17.80;99.90
12948;DHT22;6539;49.476;8.484;2023-05-10T08:40:55;18.00;99.90
12948;DHT22;6539;49.476;8.484;2023-05-10T08:43:27;18.10;99.90
12948;DHT22;6539;49.476;8.484;2023-05-10T08:46:00;17.90;99.90
12948;DHT22;6539;49.476;8.484;2023-05-10T08:48:29;17.80;99.90
12948;DHT22;6539;49.476;8.484;2023-05-10T08:50:58;17.70;99.90
12948;DHT22;6539;49.476;8.484;2023-05-10T08:53:32;17.60;99.90
12948;DHT22;6539;49.476;8.484;2023-05-10T08:56:05;17.50;99.90
12948;DHT22;6539;49.476;8.484;2023-05-10T08:58:32;17.50;99.90
12948;DHT22;6539;49.476;8.484;2023-05-10T09:00:58;17.60;99.90
12948;DHT22;6539;49.476;8.484;2023-05-10T09:03:27;17.60;99.90
12948;DHT22;6539;49.476;8.484;2023-05-10T09:05:55;17.50;99.90
12948;DHT22;6539;49.476;8.484;2023-05-10T09:08:24;17.60;99.90
12948;DHT22;6539;49.476;8.484;2023-05-10T09:10:51;17.60;99.90
12948;DHT22;6539;49.476;8.484;2023-05-10T09:13:19;17.70;99.90
12948;DHT22;6539;49.476;8.484;2023-05-10T09:15:49;17.70;99.90
12948;DHT22;6539;49.476;8.484;2023-05-10T09:18:18;17.90;99.90
12948;DHT22;6539;49.476;8.484;2023-05-10T09:20:46;17.70;99.90
12948;DHT22;6539;49.476;8.484;2023-05-10T09:23:12;17.60;99.90
12948;DHT22;6539;49.476;8.484;2023-05-10T09:25:38;17.50;99.90
12948;DHT22;6539;49.476;8.484;2023-05-10T09:28:10;17.50;99.90
12948;DHT22;6539;49.476;8.484;2023-05-10T09:30:37;17.10;99.90
12948;DHT22;6539;49.476;8.484;2023-05-10T09:33:05;17.50;99.90
12948;DHT22;6539;49.476;8.484;2023-05-10T09:35:32;17.60;99.90
12948;DHT22;6539;49.476;8.484;2023-05-10T09:38:06;17.60;99.90
12948;DHT22;6539;49.476;8.484;2023-05-10T09:40:35;17.90;99.90
12948;DHT22;6539;49.476;8.484;2023-05-10T09:43:08;17.90;99.90
12948;DHT22;6539;49.476;8.484;2023-05-10T09:45:34;17.90;99.90
12948;DHT22;6539;49.476;8.484;2023-05-10T09:48:02;17.80;99.90
12948;DHT22;6539;49.476;8.484;2023-05-10T09:50:29;17.90;99.90
12948;DHT22;6539;49.476;8.484;2023-05-10T09:53:00;18.10;99.90
12948;DHT22;6539;49.476;8.484;2023-05-10T09:55:42;18.60;99.90
12948;DHT22;6539;49.476;8.484;2023-05-10T09:58:14;18.30;99.90
12948;DHT22;6539;49.476;8.484;2023-05-10T10:00:42;18.40;99.90
12948;DHT22;6539;49.476;8.484;2023-05-10T10:03:19;18.50;99.90
12948;DHT22;6539;49.476;8.484;2023-05-10T10:05:48;18.40;99.90
12948;DHT22;6539;49.476;8.484;2023-05-10T10:10:45;18.80;99.90
12948;DHT22;6539;49.476;8.484;2023-05-10T10:13:14;19.00;99.90
12948;DHT22;6539;49.476;8.484;2023-05-10T10:15:42;18.90;99.90
12948;DHT22;6539;49.476;8.484;2023-05-10T10:18:13;19.00;99.90
12948;DHT22;6539;49.476;8.484;2023-05-10T10:20:41;19.00;99.90
12948;DHT22;6539;49.476;8.484;2023-05-10T10:23:08;19.10;99.90
12948;DHT22;6539;49.476;8.484;2023-05-10T10:25:34;19.30;99.90
12948;DHT22;6539;49.476;8.484;2023-05-10T10:30:48;19.40;99.90
12948;DHT22;6539;49.476;8.484;2023-05-10T10:36:16;19.10;99.90
12948;DHT22;6539;49.476;8.484;2023-05-10T10:41:31;19.00;99.90
12948;DHT22;6539;49.476;8.484;2023-05-10T10:47:11;19.20;99.90
12948;DHT22;6539;49.476;8.484;2023-05-10T10:49:52;19.30;99.90
12948;DHT22;6539;49.476;8.484;2023-05-10T10:55:16;19.70;99.90
12948;DHT22;6539;49.476;8.484;2023-05-10T11:05:44;20.80;99.90
12948;DHT22;6539;49.476;8.484;2023-05-10T11:10:54;21.00;99.90
12948;DHT22;6539;49.476;8.484;2023-05-10T11:13:48;20.90;99.90
12948;DHT22;6539;49.476;8.484;2023-05-10T11:16:15;21.10;99.90
12948;DHT22;6539;49.476;8.484;2023-05-10T11:21:28;21.20;99.90
12948;DHT22;6539;49.476;8.484;2023-05-10T11:23:59;21.10;99.90
12948;DHT22;6539;49.476;8.484;2023-05-10T11:26:33;20.90;99.90
12948;DHT22;6539;49.476;8.484;2023-05-10T11:29:02;21.10;99.90
12948;DHT22;6539;49.476;8.484;2023-05-10T11:31:30;21.20;99.90
12948;DHT22;6539;49.476;8.484;2023-05-10T11:33:57;21.40;99.90
12948;DHT22;6539;49.476;8.484;2023-05-10T11:36:29;21.40;99.90
12948;DHT22;6539;49.476;8.484;2023-05-10T11:39:01;21.40;99.90
12948;DHT22;6539;49.476;8.484;2023-05-10T11:41:30;21.40;99.90
12948;DHT22;6539;49.476;8.484;2023-05-10T11:43:57;21.40;99.90
12948;DHT22;6539;49.476;8.484;2023-05-10T11:46:27;21.50;99.90
12948;DHT22;6539;49.476;8.484;2023-05-10T11:49:01;21.50;99.90
12948;DHT22;6539;49.476;8.484;2023-05-10T11:51:32;21.60;99.90
12948;DHT22;6539;49.476;8.484;2023-05-10T11:54:00;21.60;99.90
12948;DHT22;6539;49.476;8.484;2023-05-10T11:56:34;21.60;99.90
12948;DHT22;6539;49.476;8.484;2023-05-10T11:59:01;21.40;99.90
12948;DHT22;6539;49.476;8.484;2023-05-10T12:01:28;20.90;99.90
12948;DHT22;6539;49.476;8.484;2023-05-10T12:03:59;20.80;99.90
12948;DHT22;6539;49.476;8.484;2023-05-10T12:06:32;21.00;99.90
12948;DHT22;6539;49.476;8.484;2023-05-10T12:09:06;21.00;99.90
12948;DHT22;6539;49.476;8.484;2023-05-10T12:11:37;21.30;99.90
12948;DHT22;6539;49.476;8.484;2023-05-10T12:14:05;21.30;99.90
12948;DHT22;6539;49.476;8.484;2023-05-10T12:16:32;21.20;99.90
12948;DHT22;6539;49.476;8.484;2023-05-10T12:18:59;21.20;99.90
12948;DHT22;6539;49.476;8.484;2023-05-10T12:21:27;21.30;99.90
12948;DHT22;6539;49.476;8.484;2023-05-10T12:24:03;20.90;99.90
12948;DHT22;6539;49.476;8.484;2023-05-10T12:26:30;20.90;99.90
12948;DHT22;6539;49.476;8.484;2023-05-10T12:29:12;21.00;99.90
12948;DHT22;6539;49.476;8.484;2023-05-10T12:31:59;21.00;99.90
12948;DHT22;6539;49.476;8.484;2023-05-10T12:34:35;20.90;99.90
12948;DHT22;6539;49.476;8.484;2023-05-10T12:37:05;21.10;99.90
12948;DHT22;6539;49.476;8.484;2023-05-10T12:39:41;21.00;99.90
12948;DHT22;6539;49.476;8.484;2023-05-10T12:42:09;21.20;99.90
12948;DHT22;6539;49.476;8.484;2023-05-10T12:44:37;21.30;99.90
12948;DHT22;6539;49.476;8.484;2023-05-10T12:47:04;21.20;99.90
12948;DHT22;6539;49.476;8.484;2023-05-10T12:49:31;20.80;99.90
12948;DHT22;6539;49.476;8.484;2023-05-10T12:51:56;20.90;99.90
12948;DHT22;6539;49.476;8.484;2023-05-10T12:54:25;20.90;99.90
12948;DHT22;6539;49.476;8.484;2023-05-10T12:56:53;21.10;99.90
12948;DHT22;6539;49.476;8.484;2023-05-10T12:59:19;21.30;99.90
12948;DHT22;6539;49.476;8.484;2023-05-10T13:01:45;21.40;99.90
12948;DHT22;6539;49.476;8.484;2023-05-10T13:04:11;21.10;99.90
12948;DHT22;6539;49.476;8.484;2023-05-10T13:06:36;21.00;99.90
12948;DHT22;6539;49.476;8.484;2023-05-10T13:09:02;20.70;99.90
12948;DHT22;6539;49.476;8.484;2023-05-10T13:11:28;21.00;99.90
12948;DHT22;6539;49.476;8.484;2023-05-10T13:13:59;21.30;99.90
12948;DHT22;6539;49.476;8.484;2023-05-10T13:16:24;21.50;99.90
12948;DHT22;6539;49.476;8.484;2023-05-10T13:18:53;21.60;99.90
12948;DHT22;6539;49.476;8.484;2023-05-10T13:21:21;21.50;99.90
12948;DHT22;6539;49.476;8.484;2023-05-10T13:23:49;21.60;99.90
12948;DHT22;6539;49.476;8.484;2023-05-10T13:26:15;21.70;99.90
12948;DHT22;6539;49.476;8.484;2023-05-10T13:28:43;21.40;99.90
12948;DHT22;6539;49.476;8.484;2023-05-10T13:31:13;21.50;99.90
12948;DHT22;6539;49.476;8.484;2023-05-10T13:33:41;21.50;99.90
12948;DHT22;6539;49.476;8.484;2023-05-10T13:36:07;21.30;99.90
12948;DHT22;6539;49.476;8.484;2023-05-10T13:38:33;21.10;99.90
12948;DHT22;6539;49.476;8.484;2023-05-10T13:40:58;21.30;99.90
12948;DHT22;6539;49.476;8.484;2023-05-10T13:43:24;21.30;99.90
12948;DHT22;6539;49.476;8.484;2023-05-10T13:45:50;21.30;99.90
12948;DHT22;6539;49.476;8.484;2023-05-10T13:48:16;21.10;99.90
12948;DHT22;6539;49.476;8.484;2023-05-10T13:50:43;21.30;99.90
12948;DHT22;6539;49.476;8.484;2023-05-10T13:53:08;21.50;99.90
12948;DHT22;6539;49.476;8.484;2023-05-10T13:55:34;21.50;99.90
12948;DHT22;6539;49.476;8.484;2023-05-10T13:58:01;21.50;99.90
12948;DHT22;6539;49.476;8.484;2023-05-10T14:00:26;21.60;99.90
12948;DHT22;6539;49.476;8.484;2023-05-10T14:02:53;21.70;99.90
12948;DHT22;6539;49.476;8.484;2023-05-10T14:05:18;21.60;99.90
12948;DHT22;6539;49.476;8.484;2023-05-10T14:07:47;21.60;99.90
12948;DHT22;6539;49.476;8.484;2023-05-10T14:10:12;21.60;99.90
12948;DHT22;6539;49.476;8.484;2023-05-10T14:12:38;21.70;99.90
12948;DHT22;6539;49.476;8.484;2023-05-10T14:15:07;21.60;99.90
12948;DHT22;6539;49.476;8.484;2023-05-10T14:17:36;21.20;99.90
12948;DHT22;6539;49.476;8.484;2023-05-10T14:20:03;21.40;99.90
12948;DHT22;6539;49.476;8.484;2023-05-10T14:22:32;21.30;99.90
12948;DHT22;6539;49.476;8.484;2023-05-10T14:24:57;21.20;99.90
12948;DHT22;6539;49.476;8.484;2023-05-10T14:27:26;21.30;99.90
12948;DHT22;6539;49.476;8.484;2023-05-10T14:29:51;21.10;99.90
12948;DHT22;6539;49.476;8.484;2023-05-10T14:32:19;20.70;99.90
12948;DHT22;6539;49.476;8.484;2023-05-10T14:34:47;20.60;99.90
12948;DHT22;6539;49.476;8.484;2023-05-10T14:37:13;20.40;99.90
12948;DHT22;6539;49.476;8.484;2023-05-10T14:39:42;20.20;99.90
12948;DHT22;6539;49.476;8.484;2023-05-10T14:42:08;20.40;99.90
12948;DHT22;6539;49.476;8.484;2023-05-10T14:44:36;20.50;99.90
12948;DHT22;6539;49.476;8.484;2023-05-10T14:47:04;20.50;99.90
12948;DHT22;6539;49.476;8.484;2023-05-10T14:49:30;20.70;99.90
12948;DHT22;6539;49.476;8.484;2023-05-10T14:52:01;21.10;99.90
12948;DHT22;6539;49.476;8.484;2023-05-10T14:54:27;21.00;99.90
12948;DHT22;6539;49.476;8.484;2023-05-10T14:56:55;21.10;99.90
12948;DHT22;6539;49.476;8.484;2023-05-10T14:59:20;20.90;99.90
12948;DHT22;6539;49.476;8.484;2023-05-10T15:01:46;20.60;99.90
12948;DHT22;6539;49.476;8.484;2023-05-10T15:06:38;20.70;99.90
12948;DHT22;6539;49.476;8.484;2023-05-10T15:09:04;20.90;99.90
12948;DHT22;6539;49.476;8.484;2023-05-10T15:11:30;20.90;99.90
12948;DHT22;6539;49.476;8.484;2023-05-10T15:13:56;20.90;99.90
12948;DHT22;6539;49.476;8.484;2023-05-10T15:16:24;21.00;99.90
12948;DHT22;6539;49.476;8.484;2023-05-10T15:18:50;21.10;99.90
12948;DHT22;6539;49.476;8.484;2023-05-10T15:21:16;21.20;99.90
12948;DHT22;6539;49.476;8.484;2023-05-10T15:23:41;21.30;99.90
12948;DHT22;6539;49.476;8.484;2023-05-10T15:26:09;21.20;99.90
12948;DHT22;6539;49.476;8.484;2023-05-10T15:28:35;21.10;99.90
12948;DHT22;6539;49.476;8.484;2023-05-10T15:31:03;21.20;99.90
12948;DHT22;6539;49.476;8.484;2023-05-10T15:33:29;21.30;99.90
12948;DHT22;6539;49.476;8.484;2023-05-10T15:35:57;21.30;99.90
12948;DHT22;6539;49.476;8.484;2023-05-10T15:38:23;21.30;99.90
12948;DHT22;6539;49.476;8.484;2023-05-10T15:40:49;21.30;99.90
12948;DHT22;6539;49.476;8.484;2023-05-10T15:43:20;21.40;99.90
12948;DHT22;6539;49.476;8.484;2023-05-10T15:45:45;21.40;99.90
12948;DHT22;6539;49.476;8.484;2023-05-10T15:48:14;21.50;99.90
12948;DHT22;6539;49.476;8.484;2023-05-10T15:50:40;21.40;99.90
12948;DHT22;6539;49.476;8.484;2023-05-10T15:53:08;20.90;99.90
12948;DHT22;6539;49.476;8.484;2023-05-10T15:55:34;21.10;99.90
12948;DHT22;6539;49.476;8.484;2023-05-10T15:58:00;21.20;99.90
12948;DHT22;6539;49.476;8.484;2023-05-10T16:00:28;21.20;99.90
12948;DHT22;6539;49.476;8.484;2023-05-10T16:02:54;21.10;99.90
12948;DHT22;6539;49.476;8.484;2023-05-10T16:05:22;21.00;99.90
12948;DHT22;6539;49.476;8.484;2023-05-10T16:07:54;21.10;99.90
12948;DHT22;6539;49.476;8.484;2023-05-10T16:10:20;21.10;99.90
12948;DHT22;6539;49.476;8.484;2023-05-10T16:12:45;21.20;99.90
12948;DHT22;6539;49.476;8.484;2023-05-10T16:15:14;21.30;99.90
12948;DHT22;6539;49.476;8.484;2023-05-10T16:17:39;21.00;99.90
12948;DHT22;6539;49.476;8.484;2023-05-10T16:20:06;21.10;99.90
12948;DHT22;6539;49.476;8.484;2023-05-10T16:22:32;20.80;99.90
12948;DHT22;6539;49.476;8.484;2023-05-10T16:24:58;20.70;99.90
12948;DHT22;6539;49.476;8.484;2023-05-10T16:27:24;20.40;99.90
12948;DHT22;6539;49.476;8.484;2023-05-10T16:29:52;20.50;99.90
12948;DHT22;6539;49.476;8.484;2023-05-10T16:32:21;20.60;99.90
12948;DHT22;6539;49.476;8.484;2023-05-10T16:34:49;20.50;99.90
12948;DHT22;6539;49.476;8.484;2023-05-10T16:37:19;20.70;99.90
12948;DHT22;6539;49.476;8.484;2023-05-10T16:39:47;20.70;99.90
12948;DHT22;6539;49.476;8.484;2023-05-10T16:42:16;20.70;99.90
12948;DHT22;6539;49.476;8.484;2023-05-10T16:44:41;20.40;99.90